Track варинская лиза

Time Latitude Longitude Accuracy (66% radius in meters) Altitude (meters) Speed (km/hour) Bearing (degrees) Battery (%) GPS flag
13:58:19 59.874061 29.922434 6 41.7 1.7999999523163 47.700000762939 11 1 delete
13:58:17 59.874039 29.922342 6 44.2 2.4000000953674 53 11 1 delete
13:58:14 59.873986 29.922138 8 45.2 3.7999999523163 44 11 1 delete
13:58:11 59.873735 29.921730 12 53.4 3.0999999046326 251.80000305176 11 1 delete
13:58:07 59.873779 29.921985 8 57 0.60000002384186 71.199996948242 11 1 delete
13:58:00 59.873739 29.921968 16 54.5 2.6000001430511 70.800003051758 11 1 delete
13:57:56 59.873724 29.921830 8 52.8 1 80.699996948242 11 1 delete
13:57:51 59.873721 29.921743 4 50.5 0.60000002384186 91.400001525879 11 1 delete
13:57:45 59.873688 29.921602 6 46.8 1.7000000476837 39.799999237061 11 1 delete
13:57:44 59.873675 29.921578 6 45.3 1.7999999523163 45.400001525879 11 1 delete
13:57:39 59.873616 29.921418 12 44 1.1000000238419 31.5 11 1 delete
13:57:33 59.873605 29.921394 12 43.5 0 0 11 1 delete
13:57:20 59.873610 29.921389 8 43.3 0 0 11 1 delete
13:57:12 59.873560 29.921260 24 45.9 0 0 11 1 delete
13:57:08 59.873498 29.921179 12 42.4 0.80000001192093 36.099998474121 11 1 delete
13:56:57 59.873494 29.921186 12 41.8 0 0 11 1 delete
13:56:45 59.873484 29.921194 6 40.9 0 0 11 1 delete
13:56:35 59.873451 29.921195 8 43.4 0 0 11 1 delete
13:56:25 59.873470 29.921188 16 41.3 1.1000000238419 198.39999389648 11 1 delete
13:56:22 59.873535 29.921208 12 39.8 0.80000001192093 233.10000610352 11 1 delete
13:56:20 59.873564 29.921248 12 37.9 0.60000002384186 206.80000305176 11 1 delete
13:56:15 59.873646 29.921340 12 40.1 1.4000000953674 356 11 1 delete
13:56:11 59.873587 29.921369 6 41.9 0.30000001192093 285.5 11 1 delete
13:56:07 59.873565 29.921464 6 44.9 0.5 285.5 11 1 delete
13:56:02 59.873548 29.921666 6 50.9 1.2000000476837 317.5 11 1 delete
13:55:59 59.873479 29.921790 8 55.4 2.4000000953674 328 11 1 delete
13:55:48 59.873485 29.921858 12 54.800082234888 0 330.35134887695 11 1 delete
13:55:36 59.873498 29.921870 12 55.700097618558 2.1392278671265 0 11 1 delete
13:55:24 59.873460 29.921893 16 50.500085896338 1.4097155332565 0 11 1 delete
13:55:17 59.873446 29.921771 16 47.000097139558 1.7199378013611 0 11 1 delete
13:55:13 59.873451 29.921675 24 50.400157974001 1.3306494951248 19.10000038147 11 1 delete
13:55:08 59.873436 29.921585 32 48.100175194383 1.1000000238419 56.299999237061 11 1 delete
13:55:02 59.873415 29.921457 24 47.300154138568 1.6543692350388 6.6999998092651 11 1 delete
13:55:00 59.873404 29.921418 24 46.700142455832 1.631014585495 6.6999998092651 11 1 delete
13:54:51 59.873312 29.921352 24 47.500079195797 1.9890788793564 336.20001220703 11 1 delete
13:54:50 59.873299 29.921358 24 47.300062094456 1.9841678142548 336.20001220703 11 1 delete
13:54:44 59.873282 29.921525 24 46.20001474373 1.5834527015686 310.39999389648 11 1 delete
13:54:39 59.873219 29.921656 16 44.399979097765 2.2000000476837 317.29998779297 11 1 delete
13:54:33 59.873141 29.921794 24 43.499979609253 2 348.39999389648 11 1 delete
13:54:28 59.873056 29.921734 12 46.999992088823 1.3702974319458 13.5 11 1 delete
13:54:27 59.873043 29.921725 8 46.699993443939 1.307875752449 6.9000000953674 11 1 delete
13:54:22 59.872950 29.921648 8 46.099983801594 1.754834651947 324.5 11 1 delete
13:54:17 59.872855 29.921650 12 45.99999942965 1.4752246141434 307.10000610352 11 1 delete
13:54:15 59.872838 29.921678 8 47.000000187708 1.2749729156494 299.79998779297 11 1 delete
13:54:04 59.872757 29.921728 12 54.199999999215 1.6747570037842 0 11 1 delete
14:53:36 59.872793 29.921798 16 54.3 1.8999999761581 231 11 0 delete
13:53:41 59.872757 29.921710 24 54.1 0 0 11 1 delete
13:53:31 59.872753 29.921739 16 53.5 1.4000000953674 216.30000305176 11 1 delete
13:53:28 59.872793 29.921798 16 54.3 1.8999999761581 231 11 1 delete
13:53:25 59.872868 29.921919 16 53.499987492025 2.2000000476837 243.89999389648 11 1 delete